createdAt,value
2024-02-02T00:02:03.287Z,7.17
2024-02-02T00:04:31.672Z,6.83
2024-02-02T00:06:59.962Z,7.07
2024-02-02T00:09:28.364Z,7.20
2024-02-02T00:11:58.530Z,6.37
2024-02-02T00:14:27.477Z,6.97
2024-02-02T00:16:55.793Z,7.63
2024-02-02T00:19:24.245Z,6.97
2024-02-02T00:21:52.651Z,8.03
2024-02-02T00:24:20.952Z,7.93
2024-02-02T00:26:49.244Z,6.33
2024-02-02T00:29:19.631Z,7.67
2024-02-02T00:31:48.261Z,8.10
2024-02-02T00:34:16.701Z,7.77
2024-02-02T00:36:45.002Z,8.10
2024-02-02T00:39:13.339Z,8.47
2024-02-02T00:41:41.775Z,8.60
2024-02-02T00:44:10.119Z,8.70
2024-02-02T00:46:39.725Z,9.20
2024-02-02T00:49:08.084Z,11.23
2024-02-02T00:51:36.416Z,8.90
2024-02-02T00:54:04.798Z,10.70
2024-02-02T00:56:33.099Z,9.40
2024-02-02T00:59:01.702Z,10.50
2024-02-02T01:01:29.994Z,9.73
2024-02-02T01:03:59.721Z,9.53
2024-02-02T01:06:28.513Z,10.30
2024-02-02T01:08:56.850Z,9.43
2024-02-02T01:11:25.665Z,10.70
2024-02-02T01:13:54.302Z,11.57
2024-02-02T01:16:22.801Z,10.47
2024-02-02T01:18:51.198Z,11.20
2024-02-02T01:21:21.090Z,12.03
2024-02-02T01:23:50.097Z,14.00
2024-02-02T01:26:18.496Z,12.23
2024-02-02T01:28:46.862Z,13.90
2024-02-02T01:31:15.097Z,13.90
2024-02-02T01:33:43.452Z,14.00
2024-02-02T01:36:11.900Z,13.03
2024-02-02T01:38:42.321Z,13.57
2024-02-02T01:41:10.648Z,14.37
2024-02-02T01:43:38.850Z,12.67
2024-02-02T01:46:07.224Z,13.03
2024-02-02T01:48:35.679Z,15.60
2024-02-02T01:51:04.037Z,11.67
2024-02-02T01:53:32.871Z,13.50
2024-02-02T01:56:02.457Z,15.73
2024-02-02T01:58:31.005Z,15.00
2024-02-02T02:00:59.267Z,14.93
2024-02-02T02:03:28.073Z,13.40
2024-02-02T02:05:56.667Z,14.43
2024-02-02T02:08:25.052Z,14.60
2024-02-02T02:10:53.463Z,14.10
2024-02-02T02:13:25.179Z,14.90
2024-02-02T02:15:53.620Z,15.73
2024-02-02T02:18:22.102Z,15.53
2024-02-02T02:20:51.725Z,15.40
2024-02-02T02:23:21.486Z,14.77
2024-02-02T02:25:49.738Z,15.03
2024-02-02T02:28:17.972Z,14.70
2024-02-02T02:30:48.063Z,14.70
2024-02-02T02:33:16.520Z,16.63
2024-02-02T02:35:44.903Z,16.60
2024-02-02T02:38:13.161Z,17.90
2024-02-02T02:40:42.841Z,16.40
2024-02-02T02:43:11.047Z,16.10
2024-02-02T02:45:39.830Z,16.60
2024-02-02T02:48:08.788Z,17.47
2024-02-02T02:50:37.529Z,18.20
2024-02-02T02:53:05.179Z,18.10
2024-02-02T02:55:33.683Z,18.80
2024-02-02T02:58:03.296Z,18.80
2024-02-02T03:00:32.870Z,17.97
2024-02-02T03:03:01.406Z,19.63
2024-02-02T03:05:31.756Z,20.23
2024-02-02T03:08:00.042Z,19.20
2024-02-02T03:10:30.023Z,18.20
2024-02-02T03:12:58.524Z,18.20
2024-02-02T03:15:32.440Z,17.83
2024-02-02T03:18:01.144Z,17.50
2024-02-02T03:20:29.937Z,17.03
2024-02-02T03:22:58.907Z,15.70
2024-02-02T03:25:27.113Z,16.60
2024-02-02T03:27:55.363Z,15.87
2024-02-02T03:30:23.638Z,16.07
2024-02-02T03:32:53.517Z,15.43
2024-02-02T03:35:22.009Z,14.30
2024-02-02T03:37:50.323Z,14.77
2024-02-02T03:40:18.664Z,15.73
2024-02-02T03:42:45.858Z,14.53
2024-02-02T03:45:14.700Z,14.27
2024-02-02T03:47:43.017Z,14.10
2024-02-02T03:50:12.867Z,14.03
2024-02-02T03:52:41.377Z,13.50
2024-02-02T03:55:10.268Z,14.00
2024-02-02T03:57:38.496Z,14.70
2024-02-02T04:00:10.881Z,13.50
2024-02-02T04:02:42.540Z,13.73
2024-02-02T04:05:12.637Z,13.57
2024-02-02T04:07:41.012Z,14.70
2024-02-02T04:10:10.295Z,13.57
2024-02-02T04:12:39.072Z,13.93
2024-02-02T04:15:08.733Z,13.57
2024-02-02T04:17:37.130Z,9.67
2024-02-02T04:20:07.323Z,14.60
2024-02-02T04:22:37.078Z,12.80
2024-02-02T04:25:06.101Z,13.17
2024-02-02T04:27:35.624Z,14.47
2024-02-02T04:30:04.986Z,11.90
2024-02-02T04:32:33.759Z,14.40
2024-02-02T04:35:02.080Z,13.93
2024-02-02T04:37:30.327Z,15.40
2024-02-02T04:40:00.319Z,14.93
2024-02-02T04:42:28.683Z,15.40
2024-02-02T04:44:57.040Z,13.83
2024-02-02T04:47:25.286Z,16.57
2024-02-02T04:49:53.636Z,15.80
2024-02-02T04:52:22.012Z,17.30
2024-02-02T04:54:50.278Z,15.13
2024-02-02T04:57:19.928Z,15.57
2024-02-02T04:59:48.182Z,16.13
2024-02-02T05:02:16.443Z,17.17
2024-02-02T05:04:44.707Z,16.00
2024-02-02T05:07:13.710Z,16.77
2024-02-02T05:09:41.903Z,16.40
2024-02-02T05:12:10.262Z,16.00
2024-02-02T05:14:39.905Z,16.47
2024-02-02T05:17:08.146Z,16.10
2024-02-02T05:19:36.484Z,16.93
2024-02-02T05:22:04.760Z,17.47
2024-02-02T05:24:43.497Z,15.90
2024-02-02T05:27:14.604Z,16.30
2024-02-02T05:29:45.734Z,16.83
2024-02-02T05:32:14.278Z,15.20
2024-02-02T05:34:43.102Z,16.20
2024-02-02T05:37:11.603Z,17.10
2024-02-02T05:39:39.887Z,16.23
2024-02-02T05:42:08.346Z,15.80
2024-02-02T05:44:36.638Z,15.57
2024-02-02T05:47:06.704Z,15.17
2024-02-02T05:49:35.042Z,14.90
2024-02-02T05:52:03.565Z,15.80
2024-02-02T05:54:31.958Z,13.60
2024-02-02T05:57:00.236Z,14.00
2024-02-02T05:59:28.539Z,14.40
2024-02-02T06:01:56.753Z,15.03
2024-02-02T06:04:26.415Z,14.07
2024-02-02T06:06:54.804Z,14.97
2024-02-02T06:09:23.123Z,13.53
2024-02-02T06:11:51.470Z,15.83
2024-02-02T06:14:19.769Z,14.93
2024-02-02T06:16:49.428Z,14.20
2024-02-02T06:19:17.824Z,14.20
2024-02-02T06:21:47.528Z,15.13
2024-02-02T06:24:16.011Z,14.47
2024-02-02T06:26:45.465Z,14.40
2024-02-02T06:29:13.825Z,11.10
2024-02-02T06:31:42.045Z,14.37
2024-02-02T06:34:10.427Z,14.33
2024-02-02T06:36:38.704Z,14.37
2024-02-02T06:39:08.470Z,14.50
2024-02-02T06:41:36.709Z,14.37
2024-02-02T06:44:05.146Z,15.57
2024-02-02T06:46:33.442Z,14.33
2024-02-02T06:49:01.906Z,13.53
2024-02-02T06:51:30.185Z,16.10
2024-02-02T06:53:58.567Z,15.40
2024-02-02T06:56:42.868Z,14.60
2024-02-02T06:59:11.693Z,15.80
2024-02-02T07:01:40.486Z,16.37
2024-02-02T07:04:11.303Z,15.33
2024-02-02T07:06:40.310Z,16.10
2024-02-02T07:09:23.728Z,16.50
2024-02-02T07:12:04.389Z,16.10
2024-02-02T07:14:47.460Z,16.40
2024-02-02T07:17:36.299Z,17.20
2024-02-02T07:20:10.099Z,16.57
2024-02-02T07:22:40.270Z,16.90
2024-02-02T07:25:10.495Z,17.83
2024-02-02T07:28:04.213Z,17.67
2024-02-02T07:30:54.426Z,17.73
2024-02-02T07:33:28.526Z,18.50
2024-02-02T07:36:00.275Z,17.80
2024-02-02T07:38:53.141Z,18.73
2024-02-02T07:41:25.577Z,19.10
2024-02-02T07:43:56.380Z,19.03
2024-02-02T07:46:25.491Z,18.90
2024-02-02T07:48:54.771Z,18.10
2024-02-02T07:51:25.821Z,18.70
2024-02-02T07:53:55.081Z,19.10
2024-02-02T07:56:25.568Z,18.50
2024-02-02T07:58:56.453Z,18.70
2024-02-02T08:01:24.906Z,18.63
2024-02-02T08:03:53.373Z,17.87
2024-02-02T08:06:22.569Z,20.10
2024-02-02T08:08:51.177Z,18.90
2024-02-02T08:11:20.026Z,18.57
2024-02-02T08:13:48.249Z,19.27
2024-02-02T08:16:17.917Z,18.80
2024-02-02T08:18:46.337Z,19.17
2024-02-02T08:21:14.935Z,19.97
2024-02-02T08:23:45.058Z,18.90
2024-02-02T08:26:13.342Z,18.30
2024-02-02T08:28:48.923Z,18.77
2024-02-02T08:31:24.733Z,19.60
2024-02-02T08:33:53.560Z,20.10
2024-02-02T08:36:22.173Z,17.70
2024-02-02T08:38:50.651Z,19.33
2024-02-02T08:41:18.922Z,17.97
2024-02-02T08:43:48.507Z,19.13
2024-02-02T08:46:22.045Z,19.10
2024-02-02T08:48:52.988Z,18.43
2024-02-02T08:51:55.086Z,18.60
2024-02-02T08:54:48.843Z,19.23
2024-02-02T08:57:34.803Z,18.87
2024-02-02T09:00:12.910Z,18.60
2024-02-02T09:03:00.376Z,19.30
2024-02-02T09:05:51.333Z,19.87
2024-02-02T09:08:32.990Z,19.90
2024-02-02T09:11:22.894Z,19.37
2024-02-02T09:14:02.131Z,20.33
2024-02-02T09:16:42.738Z,20.33
2024-02-02T09:19:27.612Z,18.67
2024-02-02T09:21:59.318Z,20.30
2024-02-02T09:24:40.623Z,19.60
2024-02-02T09:27:14.181Z,19.30
2024-02-02T09:29:46.624Z,17.60
2024-02-02T09:32:16.220Z,20.93
2024-02-02T09:34:44.971Z,20.00
2024-02-02T09:37:23.524Z,20.67
2024-02-02T09:39:58.640Z,21.50
2024-02-02T09:42:42.188Z,19.93
2024-02-02T09:45:14.328Z,19.57
2024-02-02T09:47:56.177Z,18.20
2024-02-02T09:50:35.452Z,21.33
2024-02-02T09:53:25.599Z,19.63
2024-02-02T09:56:02.946Z,21.70
2024-02-02T09:58:40.711Z,18.10
2024-02-02T10:01:21.139Z,19.70
2024-02-02T10:04:00.006Z,18.97
2024-02-02T10:06:41.196Z,20.27
2024-02-02T10:09:28.154Z,19.60
2024-02-02T10:12:24.826Z,19.23
2024-02-02T10:15:40.938Z,19.50
2024-02-02T10:18:32.528Z,21.57
2024-02-02T10:21:05.933Z,19.00
2024-02-02T10:23:57.012Z,20.00
2024-02-02T10:26:58.194Z,21.57
2024-02-02T10:29:39.963Z,20.03
2024-02-02T10:32:26.938Z,20.20
2024-02-02T10:35:18.868Z,18.47
2024-02-02T10:37:51.100Z,17.67
2024-02-02T10:40:32.490Z,18.60
2024-02-02T10:43:19.137Z,18.60
2024-02-02T10:46:00.858Z,18.87
2024-02-02T10:48:59.394Z,18.63
2024-02-02T10:51:36.863Z,19.27
2024-02-02T10:54:21.428Z,19.93
2024-02-02T10:57:05.579Z,18.37
2024-02-02T10:59:45.957Z,18.50
2024-02-02T11:02:22.929Z,19.63
2024-02-02T11:04:58.831Z,18.90
2024-02-02T11:07:31.005Z,18.93
2024-02-02T11:10:01.891Z,20.53
2024-02-02T11:12:40.281Z,19.63
2024-02-02T11:15:26.991Z,20.37
2024-02-02T11:18:10.352Z,19.53
2024-02-02T11:20:52.131Z,17.57
2024-02-02T11:23:30.791Z,17.03
2024-02-02T11:26:06.495Z,16.47
2024-02-02T11:28:41.414Z,18.10
2024-02-02T11:31:18.071Z,17.43
2024-02-02T11:33:58.051Z,16.80
2024-02-02T11:36:46.892Z,15.50
2024-02-02T11:39:28.716Z,15.57
2024-02-02T11:41:59.470Z,15.50
2024-02-02T11:44:29.601Z,14.60
2024-02-02T11:47:00.752Z,16.03
2024-02-02T11:49:34.862Z,15.10
2024-02-02T11:52:07.015Z,15.27
2024-02-02T11:54:44.999Z,16.13
2024-02-02T11:57:17.967Z,16.70
2024-02-02T11:59:51.498Z,13.30
2024-02-02T12:02:51.949Z,16.00
2024-02-02T12:05:23.764Z,16.90
2024-02-02T12:07:59.238Z,16.90
2024-02-02T12:10:31.036Z,17.20
2024-02-02T12:13:04.037Z,17.33
2024-02-02T12:15:32.509Z,16.97
2024-02-02T12:18:04.250Z,17.67
2024-02-02T12:20:34.258Z,18.00
2024-02-02T12:23:02.670Z,15.73
2024-02-02T12:25:31.192Z,16.53
2024-02-02T12:27:59.943Z,16.63
2024-02-02T12:30:28.594Z,17.60
2024-02-02T12:32:58.635Z,18.10
2024-02-02T12:35:28.786Z,18.53
2024-02-02T12:37:57.276Z,16.93
2024-02-02T12:40:26.394Z,17.80
2024-02-02T12:42:58.549Z,18.50
2024-02-02T12:45:27.293Z,18.20
2024-02-02T12:47:55.663Z,18.37
2024-02-02T12:50:25.366Z,17.13
2024-02-02T12:52:55.652Z,17.70
2024-02-02T12:55:24.133Z,17.13
2024-02-02T12:57:52.995Z,17.80
2024-02-02T13:00:25.329Z,18.17
2024-02-02T13:02:55.911Z,17.70
2024-02-02T13:05:27.533Z,16.60
2024-02-02T13:07:58.138Z,16.53
2024-02-02T13:10:40.407Z,17.47
2024-02-02T13:13:12.993Z,16.83
2024-02-02T13:15:43.100Z,16.30
2024-02-02T13:18:16.500Z,17.57
2024-02-02T13:20:47.061Z,16.00
2024-02-02T13:23:25.357Z,18.27
2024-02-02T13:25:54.531Z,16.00
2024-02-02T13:28:22.959Z,17.37
2024-02-02T13:30:55.531Z,16.47
2024-02-02T13:33:29.490Z,16.93
2024-02-02T13:36:00.284Z,16.80
2024-02-02T13:38:32.463Z,16.67
2024-02-02T13:41:01.412Z,17.07
2024-02-02T13:43:30.505Z,16.20
2024-02-02T13:46:04.963Z,16.40
2024-02-02T13:48:37.979Z,15.43
2024-02-02T13:51:06.651Z,14.60
2024-02-02T13:53:36.439Z,15.40
2024-02-02T13:56:06.777Z,15.37
2024-02-02T13:58:41.304Z,14.60
2024-02-02T14:01:17.845Z,16.07
2024-02-02T14:03:48.287Z,14.20
2024-02-02T14:06:17.135Z,15.10
2024-02-02T14:08:48.863Z,13.03
2024-02-02T14:11:24.698Z,14.33
2024-02-02T14:13:53.500Z,14.63
2024-02-02T14:16:23.844Z,14.97
2024-02-02T14:19:01.871Z,13.10
2024-02-02T14:21:32.008Z,14.60
2024-02-02T14:24:10.010Z,13.53
2024-02-02T14:26:49.006Z,12.87
2024-02-02T14:29:17.545Z,12.63
2024-02-02T14:31:46.998Z,12.87
2024-02-02T14:34:15.570Z,11.90
2024-02-02T14:36:44.606Z,13.00
2024-02-02T14:39:15.232Z,14.80
2024-02-02T14:41:43.831Z,14.57
2024-02-02T14:44:12.136Z,12.63
2024-02-02T14:46:41.160Z,12.47
2024-02-02T14:49:10.351Z,11.90
2024-02-02T14:51:39.007Z,12.70
2024-02-02T14:54:07.814Z,12.60
2024-02-02T14:56:39.450Z,11.90
2024-02-02T14:59:10.121Z,12.40
2024-02-02T15:01:39.016Z,12.10
2024-02-02T15:04:08.307Z,12.63
2024-02-02T15:06:38.382Z,11.70
2024-02-02T15:09:13.798Z,11.60
2024-02-02T15:11:44.684Z,11.40
2024-02-02T15:14:13.782Z,13.00
2024-02-02T15:16:42.325Z,11.77
2024-02-02T15:19:10.746Z,12.13
2024-02-02T15:21:39.143Z,12.83
2024-02-02T15:24:08.124Z,13.10
2024-02-02T15:26:38.093Z,12.63
2024-02-02T15:29:09.142Z,11.67
2024-02-02T15:31:39.346Z,13.77
2024-02-02T15:34:08.470Z,13.13
2024-02-02T15:36:37.343Z,12.17
2024-02-02T15:39:19.011Z,12.40
2024-02-02T15:41:55.718Z,10.93
2024-02-02T15:44:25.826Z,11.83
2024-02-02T15:46:54.088Z,12.00
2024-02-02T15:49:23.039Z,12.00
2024-02-02T15:51:51.664Z,11.93
2024-02-02T15:54:22.906Z,11.40
2024-02-02T15:56:51.287Z,11.00
2024-02-02T15:59:19.512Z,10.10
2024-02-02T16:01:49.887Z,9.27
2024-02-02T16:04:18.285Z,9.83
2024-02-02T16:06:46.798Z,10.30
2024-02-02T16:09:15.429Z,9.20
2024-02-02T16:11:43.789Z,9.77
2024-02-02T16:14:12.190Z,9.57
2024-02-02T16:16:40.540Z,9.67
2024-02-02T16:19:11.104Z,9.20
2024-02-02T16:21:39.569Z,9.50
2024-02-02T16:24:10.584Z,10.10
2024-02-02T16:26:43.784Z,10.07
2024-02-02T16:29:12.245Z,10.00
2024-02-02T16:31:44.291Z,10.20
2024-02-02T16:34:15.195Z,11.43
2024-02-02T16:36:44.389Z,11.70
2024-02-02T16:39:14.868Z,10.60
2024-02-02T16:41:44.184Z,10.77
2024-02-02T16:44:13.446Z,10.60
2024-02-02T16:46:42.538Z,10.30
2024-02-02T16:49:11.084Z,10.70
2024-02-02T16:51:42.772Z,10.10
2024-02-02T16:54:11.713Z,9.97
2024-02-02T16:56:39.941Z,9.83
2024-02-02T16:59:08.777Z,10.87
2024-02-02T17:01:37.386Z,11.33
2024-02-02T17:04:06.203Z,11.23
2024-02-02T17:06:34.878Z,10.20
2024-02-02T17:09:06.933Z,10.20
2024-02-02T17:11:35.293Z,11.83
2024-02-02T17:14:03.571Z,10.57
2024-02-02T17:16:31.982Z,10.60
2024-02-02T17:19:00.329Z,11.13
2024-02-02T17:21:28.798Z,11.30
2024-02-02T17:23:57.140Z,10.13
2024-02-02T17:26:26.748Z,11.50
2024-02-02T17:29:00.253Z,12.50
2024-02-02T17:31:32.245Z,12.47
2024-02-02T17:34:01.417Z,13.73
2024-02-02T17:36:29.855Z,14.10
2024-02-02T17:38:58.163Z,13.43
2024-02-02T17:41:27.723Z,15.30
2024-02-02T17:43:56.036Z,15.00
2024-02-02T17:46:24.910Z,15.33
2024-02-02T17:48:53.241Z,16.40
2024-02-02T17:51:22.750Z,16.20
2024-02-02T17:53:51.573Z,17.00
2024-02-02T17:56:19.761Z,17.23
2024-02-02T17:58:55.679Z,19.43
2024-02-02T18:01:24.885Z,18.93
2024-02-02T18:03:53.876Z,19.20
2024-02-02T18:06:22.278Z,20.43
2024-02-02T18:08:50.691Z,22.07
2024-02-02T18:11:18.931Z,20.97
2024-02-02T18:13:48.693Z,23.37
2024-02-02T18:16:17.019Z,22.77
2024-02-02T18:18:46.903Z,22.77
2024-02-02T18:21:15.652Z,22.50
2024-02-02T18:23:43.968Z,23.57
2024-02-02T18:26:12.272Z,23.33
2024-02-02T18:28:40.509Z,23.53
2024-02-02T18:31:10.189Z,23.07
2024-02-02T18:33:40.349Z,23.73
2024-02-02T18:36:09.147Z,22.57
2024-02-02T18:38:41.662Z,23.70
2024-02-02T18:41:09.975Z,25.00
2024-02-02T18:43:39.819Z,25.27
2024-02-02T18:46:09.937Z,25.70
2024-02-02T18:48:40.374Z,24.90
2024-02-02T18:51:17.169Z,24.37
2024-02-02T18:53:45.629Z,23.87
2024-02-02T18:56:14.627Z,25.40
2024-02-02T18:58:46.609Z,25.13
2024-02-02T19:01:25.862Z,26.70
2024-02-02T19:03:54.684Z,27.20
2024-02-02T19:06:23.419Z,29.20
2024-02-02T19:08:51.752Z,27.17
2024-02-02T19:11:22.289Z,29.10
2024-02-02T19:13:50.776Z,28.00
2024-02-02T19:16:20.048Z,28.87
2024-02-02T19:18:50.693Z,28.20
2024-02-02T19:21:20.089Z,27.87
2024-02-02T19:23:48.509Z,27.30
2024-02-02T19:26:16.896Z,24.33
2024-02-02T19:28:45.346Z,25.63
2024-02-02T19:31:20.516Z,26.17
2024-02-02T19:33:50.896Z,27.00
2024-02-02T19:36:23.543Z,25.37
2024-02-02T19:38:52.262Z,25.13
2024-02-02T19:41:21.555Z,25.40
2024-02-02T19:43:51.845Z,25.50
2024-02-02T19:46:21.456Z,24.03
2024-02-02T19:48:51.977Z,24.50
2024-02-02T19:51:22.407Z,25.07
2024-02-02T19:53:50.840Z,23.27
2024-02-02T19:56:19.963Z,25.93
2024-02-02T19:58:49.447Z,24.50
2024-02-02T20:01:19.114Z,23.87
2024-02-02T20:03:49.444Z,24.90
2024-02-02T20:06:20.862Z,23.30
2024-02-02T20:08:51.285Z,23.70
2024-02-02T20:11:21.318Z,22.43
2024-02-02T20:13:50.284Z,23.57
2024-02-02T20:16:20.006Z,22.97
2024-02-02T20:18:49.338Z,22.23
2024-02-02T20:21:21.044Z,21.13
2024-02-02T20:23:52.380Z,22.77
2024-02-02T20:26:21.375Z,21.63
2024-02-02T20:28:50.283Z,21.90
2024-02-02T20:31:18.655Z,22.83
2024-02-02T20:33:48.268Z,21.17
2024-02-02T20:36:23.532Z,21.80
2024-02-02T20:38:51.909Z,21.53
2024-02-02T20:41:25.923Z,20.23
2024-02-02T20:43:55.499Z,19.60
2024-02-02T20:46:23.904Z,20.77
2024-02-02T20:48:52.293Z,20.30
2024-02-02T20:51:22.710Z,19.17
2024-02-02T20:53:51.189Z,19.30
2024-02-02T20:56:19.699Z,20.20
2024-02-02T20:58:48.060Z,19.93
2024-02-02T21:01:16.469Z,21.00
2024-02-02T21:03:45.310Z,20.17
2024-02-02T21:06:14.050Z,22.27
2024-02-02T21:08:45.515Z,22.13
2024-02-02T21:11:13.913Z,20.70
2024-02-02T21:13:44.846Z,21.10
2024-02-02T21:16:13.352Z,19.63
2024-02-02T21:18:41.790Z,19.47
2024-02-02T21:21:10.344Z,20.17
2024-02-02T21:23:41.951Z,19.20
2024-02-02T21:26:11.569Z,20.40
2024-02-02T21:28:39.887Z,21.00
2024-02-02T21:31:08.296Z,18.07
2024-02-02T21:33:36.701Z,19.20
2024-02-02T21:36:08.814Z,19.23
2024-02-02T21:38:37.287Z,18.67
2024-02-02T21:41:05.887Z,19.87
2024-02-02T21:43:35.521Z,19.20
2024-02-02T21:46:04.015Z,18.63
2024-02-02T21:48:34.103Z,17.93
2024-02-02T21:51:02.537Z,19.80
2024-02-02T21:53:30.769Z,18.47
2024-02-02T21:55:59.003Z,18.17
2024-02-02T21:58:27.295Z,18.37
2024-02-02T22:00:57.353Z,18.73
2024-02-02T22:03:25.813Z,19.03
2024-02-02T22:05:54.189Z,19.20
2024-02-02T22:08:22.561Z,19.27
2024-02-02T22:10:50.811Z,19.87
2024-02-02T22:13:19.208Z,19.83
2024-02-02T22:15:47.596Z,18.43
2024-02-02T22:18:17.424Z,18.70
2024-02-02T22:20:47.833Z,19.37
2024-02-02T22:23:16.354Z,19.10
2024-02-02T22:25:44.661Z,19.17
2024-02-02T22:28:13.197Z,19.20
2024-02-02T22:30:41.957Z,15.40
2024-02-02T22:33:10.577Z,18.27
2024-02-02T22:35:40.669Z,20.07
2024-02-02T22:38:08.917Z,17.07
2024-02-02T22:40:37.278Z,20.00
2024-02-02T22:43:05.826Z,18.77
2024-02-02T22:45:34.155Z,19.67
2024-02-02T22:48:02.569Z,19.40
2024-02-02T22:50:30.885Z,18.17
2024-02-02T22:53:00.545Z,19.17
2024-02-02T22:55:28.972Z,18.20
2024-02-02T22:57:57.304Z,18.50
2024-02-02T23:00:25.634Z,18.40
2024-02-02T23:02:53.914Z,19.57
2024-02-02T23:05:22.168Z,19.00
2024-02-02T23:07:50.415Z,19.13
2024-02-02T23:10:20.255Z,18.07
2024-02-02T23:12:48.721Z,14.47
2024-02-02T23:15:17.123Z,17.87
2024-02-02T23:17:45.384Z,18.23
2024-02-02T23:20:13.729Z,18.63
2024-02-02T23:22:42.312Z,17.53
2024-02-02T23:25:10.962Z,17.10
2024-02-02T23:27:43.370Z,17.60
2024-02-02T23:30:12.304Z,16.80
2024-02-02T23:32:40.894Z,18.20
2024-02-02T23:35:09.173Z,17.40
2024-02-02T23:37:37.402Z,17.20
2024-02-02T23:40:07.657Z,15.93
2024-02-02T23:42:35.889Z,17.83
2024-02-02T23:45:06.594Z,17.60
2024-02-02T23:47:34.846Z,16.93
2024-02-02T23:50:03.129Z,17.90
2024-02-02T23:52:31.784Z,17.47
2024-02-02T23:55:00.494Z,17.83
2024-02-02T23:57:28.902Z,19.17
2024-02-02T23:59:57.235Z,18.00
